Terminal Aerodrome Forecast
Issued by NWS

Home | Current Version | Previous Version | Text Only | Print | Product List | Glossary On
Versions: 1 2 3 4 5 6 7 8 9 10 11 12 13 14 15 16 17
000
FTUS43 KJKL 271000 AAC
TAFSME
TAF AMD
KSME 271001Z 2710/2806 00000KT 3SM -SN OVC003
     FM271200 33007KT P6SM VCSH BKN015
     FM271500 31009KT P6SM BKN040=

USA.gov is the U.S. government's official web portal to all federal, state and local government web resources and services.